boomaga's sites:

title views votes rating creation
?Lee Raymond melts 5,556 149 (3.19)  2005-11-08
?(nsfw) Terror Squad doing it old school [mashup] 6,446 161 (3.88)  2005-11-08
?(nsfw) Young Buck doing it old school 5,709 162 (3.83)  2005-11-08
?Busta Rymes doing it old school 12,245 213 (3.99)  2005-11-08
?It's like looking into the future 6,182 137 (3.50)  2005-11-08
?AH ! Egg Drop Soup 4,162 153 (3.63)  2005-11-09
?A Drinking Problem ? 3,051 126 (3.58)  2005-11-10
?Crotchflossing with George Takei 5,058 133 (3.74)  2005-11-11
?Wide World of Khans 5,967 130 (3.65)  2005-11-11
?ThunderCats: Lion-O is distracted ! 6,891 144 (3.81)  2005-11-11
?(nsfw) 80's Hair Metal goes SQUIBBILY-DO... 5,698 178 (3.97)  2005-11-12
?Death-Row Prisoner had ONE weakness... 5,930 141 (3.57)  2005-11-13
?Two-headed baby doesn't change facial exp... 8,633 174 (3.55)  2005-11-17
?Eggfart Nightmare Boogie Moron Spliff Roach Mote... 2,978 112 (3.64)  2005-11-22
?Fruit Salad - Dance Dance Chibi-style ! 10,488 184 (3.82)  2005-11-28
?PILZBARTH 1,620 111 (3.55)  2005-11-28
?Legend of the Mystical Ninja 5,965 156 (3.88)  2005-11-29
?Would You Eat Yourself ? 6,332 163 (3.93)  2005-12-05
?Harry's Severed Head Adventures 3,936 123 (3.71)  2005-12-05
?(nsfw) I took your mom to the prom, long before y... 5,063 109 (3.53)  2005-12-05
?Jesus in a Compromising Position 2,956 140 (3.26)  2005-12-06
?Jesus Makes a Major Comeback lol 5,357 139 (3.65)  2005-12-06
?lol Jesus is Tony Robbins (fxd) 2,910 109 (3.61)  2005-12-07
?Jesus Gimmie a "T" ! lol 8,612 147 (3.76)  2005-12-07
?Something happens, and do-do-doot-do-doo 6,047 159 (3.95)  2005-12-08
?ACE OF SPADES - Lemmy 6,173 137 (3.94)  2005-12-08
?Jesus is a Lion ROR... (new fad music) 4,370 101 (3.42)  2005-12-08
?(nsfw) Antonius Sopranus Maximus badabingi 3,472 122 (3.70)  2005-12-08
?Amazing Larry 11,190 102 (3.62)  2005-12-08
?(nsfw) Elephant Riders, pt. 1 of 3 [YA GOT TA RE... 2,763 108 (3.63)  2005-12-10
?Elephant Riders, pt. 2 of 3 [REFRESHN YOSELF] 2,480 102 (3.69)  2005-12-10
?Elephant Riders, pt. 3 of 3 [REFRESH POWER G... 1,382 99 (3.54)  2005-12-10
?(nsfw) R.I.P. Richard Pryor (heart attack routine) 9,782 176 (3.97)  2005-12-10
?(nsfw) It's Still REAL to Me, Dammit ! 8,633 114 (3.77)  2005-12-11
?YTMND Top 15 on any given night 6,435 181 (4.01)  2005-12-12
?YTMND Hall of Fame back in the day 3,894 127 (3.71)  2005-12-13
?RiboFLAvin-glayvin 3,511 118 (3.69)  2005-12-13
?Ralph Wiggum's Opium Dream (Hurdygurd... 13,167 417 (4.03)  2005-12-14
?Ralph Wiggum's Opium Dream (Little Fluffy ... 3,763 150 (3.93)  2005-12-14
?(nsfw) Lazytown: Too Adorable [SHOCKING IMA... 50,981 430 (3.88)  2005-12-15
?Fat Boys vs. Space Ghost 3,550 117 (3.76)  2005-12-17
?At the Temple of Doom, they worship... 6,214 144 (3.85)  2005-12-19
?(nsfw) SKEET SKEET bad aim 10,270 185 (3.66)  2005-12-19
?Ytmndgirl Fails at YTMND (original) 8,320 243 (3.94)  2005-12-30
?MGS Soldiers on Acid think they hear footsteps 25,201 512 (4.09)  2006-01-03
?YTMND War Veterans - We Salute You 99,629 1,351 (4.25)  2006-01-09
?The Bauman E-mails: A Dramatic Reading 631,267 10,485 (4.50)  2006-01-11
?Father of LSD - Happy Birthday Albert Hofmann 9,192 207 (4.01)  2006-01-17
?Strong Bad Stares You Down ! 5,193 164 (3.71)  2006-01-17
?Nagin's Chocolate Milk 21,201 557 (4.09)  2006-01-17
?Spotz's Rappin Grandma REMIXD 9,982 318 (3.99)  2006-01-18
?(nsfw) Squeeze Squeeze AWESOME 8,863 235 (3.94)  2006-01-27
?Year o' the Dog Now, Man !: Happy C... 4,106 166 (3.96)  2006-01-29
?The Many Faces of Josh Mankiewicz 3,040 90 (3.73)  2006-02-02
?Lovin' Dan is a 60 Minute Man [REFRESH&#... 2,651 119 (3.71)  2006-02-02
?Ice Cube Superstar: a rock opera 5,437 116 (3.89)  2006-02-06
?The Block (existence by absence) 1,524 132 (3.66)  2006-02-07
?MST3K Runaway Truck - Stop it ! 10,802 431 (4.05)  2006-02-09
?(nsfw) Love Missile 13,720 579 (4.09)  2006-02-10
?Tom Servo loses his cool 3,422 107 (3.79)  2006-02-13
?YTMND Forums - Why Don't I Ever See Y... 4,820 116 (3.75)  2006-02-16
?(nsfw) Mom's Hot Biscuits [Now Lighter and F... 36,192 576 (3.81)  2006-02-19
?James Brown, how you feelin' ? 2,929 105 (3.78)  2006-02-19
?YTMND Dub - It's a Feeling [radio edit] 12,249 250 (3.98)  2006-02-21
?The Source of All of Inkdrinker's Dark Pow... 3,560 104 (3.62)  2006-02-24
?What Makes Inkdrinker Happy 3,201 113 (3.51)  2006-02-24
?(nsfw) A Fox Bewbs Special Report 10,844 365 (3.90)  2006-03-02
?how i did love bell peppers by andy age 9 39,288 1,094 (4.29)  2006-03-02
?how we be ridin spinnaz by us age 9 30,352 723 (4.07)  2006-03-04
?(nsfw) Keep Ridin' Those Spinnaz... 13,047 216 (4.00)  2006-03-04
?Balloon 3,900 139 (3.93)  2006-03-08
?Join The Dew Army newsreel 52,494 1,944 (4.35)  2006-03-08
?James Gorman Will CRUSH You [updated] 6,487 196 (4.00)  2006-03-08
?Troi Sent Dough, Who Sent That Ho-Ho ? 24,458 485 (4.14)  2006-03-09
?YTMND Drawball Yay! [updated] 3,082 101 (3.72)  2006-03-13
?Goddamn, I'm funny 1,552 92 (3.04)  2006-03-13
?Durnk Leprechauns 1,373 78 (3.65)  2006-03-18
?PTKFGS: The Bauman E-mails: A Dramatic Readi... 65,995 3,510 (4.38)  2006-03-20
?YESYES: The Skeeter E-mails: Read it out loud 30,319 861 (4.12)  2006-03-20
?test only plz dont vote seriously do not click [restore... 23,552 627 (3.53)  2006-03-23
?Journey ! 2,033 112 (3.57)  2006-03-27
?Green Means GO (Old People Shouldn't Dri... 7,752 291 (3.98)  2006-03-28
?(nsfw) MACHRIDER PWNS US ALL 2,944 108 (3.78)  2006-03-29
?The Apgar Email: Dramatic Readings [commissione... 5,470 157 (3.94)  2006-03-31
?Celebrity Shopping - Steve Perry buys cola 5,645 93 (3.45)  2006-04-04
?IMN 4,106 207 (3.67)  2006-04-05
?ERR 2,166 202 (3.72)  2006-04-05
?NRY 1,893 190 (3.76)  2006-04-05
?BTH 1,871 182 (3.69)  2006-04-05
?BGR 2,997 181 (3.65)  2006-04-05
?UAT 1,826 176 (3.80)  2006-04-05
?FCW 3,814 627 (2.47)  2006-04-05
?The Explanation. 8,699 527 (4.04)  2006-04-07
?Surfin' Exodus ! 4,315 232 (4.01)  2006-04-20
?Well... so long, then. (not retiring yet) 1,061 103 (3.31)  2006-04-27
?We Party Now 6,158 224 (3.96)  2006-04-28
?Modern Times Got Me Down 1,349 73 (3.63)  2006-04-28
?Whatchu Know About Chord Progressions ? 18,926 821 (4.34)  2006-05-02
?lol, MIDI orchestra 113,130 1,628 (4.47)  2006-05-31
?The Price is Jazz 28,512 955 (4.45)  2006-05-31
?Boo Talks 'Bout Scientology (1 of 7) 36,517 1,083 (4.30)  2006-06-13
?Boo Talks 'Bout Scientology (2 of 7) 19,879 778 (4.30)  2006-06-13
?Boo Talks 'Bout Scientology (3 of 7) 17,509 670 (4.30)  2006-06-13
?Boo Talks 'Bout Scientology (4 of 7) 15,361 617 (4.29)  2006-06-13
?Boo Talks 'Bout Scientology (5 of 7) 13,112 558 (4.15)  2006-06-14
?Boo Talks 'Bout Scientology (6 of 7) 12,996 446 (4.13)  2006-06-20
?Boo Talks 'Bout Scientology (7 of 7) 57,541 1,280 (4.55)  2006-06-20
?SunnyRay, Club Diva: Put Your Shoe on the Head 31,982 619 (4.03)  2006-06-22
?Haircut Regret ! 10,269 459 (3.97)  2006-06-22
?Just Keep Telling Yourself That, eBaum 44,408 1,011 (4.35)  2006-06-27
?On the train, I think I slept, eyes open, staring out the... 3,436 103 (4.01)  2006-07-05
?At the movies, back in the day... [v2, with hecklers] 3,993 175 (3.74)  2006-07-07
?(nsfw) Test Site, Dummy 4,160 80 (3.89)  2006-07-19
?Max makes the cover of "Wired" ! 28,458 603 (4.16)  2006-07-21
?Zimmer Gonna SEX YOU UP (sfw img) 52,777 857 (4.10)  2006-07-28
?How I did dream seahorseys by ROY4L, age 9 10,145 430 (4.02)  2006-07-29
?Surreal Snakes on a Plane 25,536 617 (3.91)  2006-08-06
?Let's Learn Estonian ! with Erkki 15,078 526 (4.13)  2006-08-07
?YTMND Fad Stock Market - Results set 1 12,664 489 (4.05)  2006-08-10
?(nsfw) Stickam Assraid !: A Proud Day for Intern... 6,954 310 (3.85)  2006-08-16
?Dig 'Em® Scams the Man 12,139 448 (3.96)  2006-08-20
?Habbo Raid: So Worthwhile ! 6,138 87 (3.90)  2006-09-12
?Sudoku for Dummies 1,891 53 (4.00)  2006-09-19
?BEEEEEE MMMMMOOOOOORREEE FFFUUNN... 1,334 65 (3.68)  2006-10-24
?Miles and miles and miles and miles and miles and ... 1,867 52 (3.98)  2006-12-19
?WARNING ! SAFETY FIRST ! [updated] 12,762 408 (4.14)  2006-12-19
?How April and I Got Together (an MS Paint Relation... 2,798 41 (3.63)  2006-12-19
?(nsfw) Bittersweet Pooper 15,548 160 (4.06)  2006-12-21
?Boomaga's The Sound of Christmas 25,177 804 (4.49)  2006-12-22
?The Godfather in His Prime, pt. 1 ['62] 3,993 133 (3.78)  2006-12-25
?The Godfather in his Prime, pt. 2 ('56-&... 8,459 178 (3.79)  2006-12-25
?boomaga age4 2,125 90 (3.61)  2006-12-26
?What's that ?... And that ? 1,122 38 (3.82)  2006-12-28
?Rooty Patooty 4,957 43 (4.21)  2006-12-29
?We Love Spotz 3,458 112 (3.83)  2007-01-10
?Ocular Dystromylia in Bubbleland 1,911 29 (3.62)  2007-01-10
?Come Bathe with Me 15,711 283 (3.65)  2007-01-10
?REAL Official Sega-Europe Sonic The Hedgehog ... 37,903 782 (4.50)  2007-01-12